N108E KCID-KTOL
Flight info
| Callsign | N108E |
|---|---|
| Flight time | N/A |
| Altitude | 39000 |
| Route | JOT J146 GIJ |
| Aircraft | C25B/M-SDE2E3FGHRWXY/LB1 |
Departure
| Time | 2026-04-10 22:38 |
|---|---|
| Airport | The Eastern Iowa Airport (KCID) |
Arrival
| Time | N/A |
|---|---|
| Airport | Eugene F. Kranz Toledo Express Airport (KTOL) |
| Time | Latitude | Longitude | Altitude | Speed | Heading |
|---|---|---|---|---|---|
| 2026-04-10 22:16 | 41.88732 | -91.71549 | 867 ft | 0 kts | 180° |
| 2026-04-10 22:29 | 41.88728 | -91.71527 | 866 ft | 4 kts | 87° |
| 2026-04-10 22:30 | 41.88701 | -91.71499 | 860 ft | 10 kts | 182° |
| 2026-04-10 22:30 | 41.88625 | -91.71502 | 863 ft | 0 kts | 180° |
| 2026-04-10 22:30 | 41.88598 | -91.71495 | 863 ft | 10 kts | 144° |
| 2026-04-10 22:30 | 41.88584 | -91.71412 | 863 ft | 9 kts | 91° |
| 2026-04-10 22:31 | 41.88583 | -91.71316 | 863 ft | 11 kts | 89° |
| 2026-04-10 22:31 | 41.88581 | -91.71206 | 863 ft | 13 kts | 91° |
| 2026-04-10 22:31 | 41.88579 | -91.71061 | 863 ft | 20 kts | 90° |
| 2026-04-10 22:31 | 41.88578 | -91.70870 | 863 ft | 22 kts | 90° |
| 2026-04-10 22:32 | 41.88576 | -91.70654 | 862 ft | 24 kts | 91° |
| 2026-04-10 22:32 | 41.88573 | -91.70422 | 862 ft | 26 kts | 90° |
| 2026-04-10 22:32 | 41.88570 | -91.70178 | 861 ft | 27 kts | 91° |
| 2026-04-10 22:32 | 41.88567 | -91.69918 | 861 ft | 27 kts | 90° |
| 2026-04-10 22:33 | 41.88565 | -91.69818 | 857 ft | 11 kts | 101° |
| 2026-04-10 22:33 | 41.88490 | -91.69774 | 853 ft | 16 kts | 184° |
| 2026-04-10 22:33 | 41.88373 | -91.69776 | 859 ft | 17 kts | 180° |
| 2026-04-10 22:33 | 41.88247 | -91.69779 | 861 ft | 19 kts | 180° |
| 2026-04-10 22:34 | 41.88102 | -91.69780 | 856 ft | 22 kts | 180° |
| 2026-04-10 22:34 | 41.88007 | -91.69796 | 858 ft | 20 kts | 215° |
| 2026-04-10 22:34 | 41.87951 | -91.69868 | 861 ft | 0 kts | 225° |
| 2026-04-10 22:35 | 41.87921 | -91.69937 | 865 ft | 12 kts | 264° |
| 2026-04-10 22:35 | 41.87936 | -91.69992 | 854 ft | 0 kts | 319° |
| 2026-04-10 22:38 | 41.88024 | -91.70103 | 864 ft | 71 kts | 316° |
| 2026-04-10 22:38 | 41.88656 | -91.70911 | 1296 ft | 149 kts | 317° |
| 2026-04-10 22:38 | 41.89446 | -91.71916 | 2775 ft | 177 kts | 325° |
| 2026-04-10 22:38 | 41.90696 | -91.72437 | 4137 ft | 206 kts | 356° |
| 2026-04-10 22:39 | 41.92158 | -91.71726 | 5537 ft | 248 kts | 34° |
| 2026-04-10 22:39 | 41.93219 | -91.69778 | 7139 ft | 274 kts | 65° |
| 2026-04-10 22:39 | 41.93332 | -91.67161 | 8788 ft | 293 kts | 101° |
| 2026-04-10 22:39 | 41.92408 | -91.64682 | 10405 ft | 302 kts | 134° |
| 2026-04-10 22:40 | 41.90924 | -91.62703 | 12008 ft | 303 kts | 139° |
| 2026-04-10 22:40 | 41.89285 | -91.61027 | 13666 ft | 298 kts | 146° |
| 2026-04-10 22:40 | 41.87905 | -91.58902 | 15148 ft | 309 kts | 122° |
| 2026-04-10 22:40 | 41.86931 | -91.56305 | 16560 ft | 313 kts | 113° |
| 2026-04-10 22:41 | 41.86302 | -91.53480 | 17230 ft | 321 kts | 97° |
| 2026-04-10 22:41 | 41.86099 | -91.50527 | 17966 ft | 322 kts | 90° |
| 2026-04-10 22:41 | 41.85989 | -91.47509 | 18712 ft | 325 kts | 89° |
| 2026-04-10 22:41 | 41.85795 | -91.44463 | 19316 ft | 330 kts | 94° |
| 2026-04-10 22:42 | 41.85467 | -91.41389 | 19920 ft | 335 kts | 96° |
| 2026-04-10 22:42 | 41.85181 | -91.38268 | 20532 ft | 339 kts | 94° |
| 2026-04-10 22:42 | 41.84956 | -91.35100 | 21158 ft | 343 kts | 92° |
| 2026-04-10 22:42 | 41.84705 | -91.31889 | 21792 ft | 348 kts | 95° |
| 2026-04-10 22:43 | 41.84379 | -91.28649 | 22431 ft | 353 kts | 96° |
| 2026-04-10 22:43 | 41.84077 | -91.25359 | 23067 ft | 358 kts | 94° |
| 2026-04-10 22:43 | 41.83800 | -91.22060 | 23684 ft | 362 kts | 94° |
| 2026-04-10 22:43 | 41.83519 | -91.18679 | 24250 ft | 367 kts | 95° |
| 2026-04-10 22:44 | 41.83214 | -91.15257 | 24780 ft | 372 kts | 95° |
| 2026-04-10 22:44 | 41.82899 | -91.11794 | 25294 ft | 377 kts | 95° |
| 2026-04-10 22:44 | 41.82590 | -91.08277 | 25827 ft | 382 kts | 95° |
| 2026-04-10 22:44 | 41.82276 | -91.04725 | 26362 ft | 386 kts | 95° |
| 2026-04-10 22:45 | 41.81957 | -91.01126 | 26888 ft | 391 kts | 95° |
| 2026-04-10 22:45 | 41.81628 | -90.97485 | 27432 ft | 395 kts | 95° |
| 2026-04-10 22:45 | 41.81300 | -90.93817 | 28050 ft | 397 kts | 95° |
| 2026-04-10 22:45 | 41.80966 | -90.90144 | 28717 ft | 398 kts | 95° |
| 2026-04-10 22:46 | 41.80636 | -90.86456 | 29385 ft | 399 kts | 95° |
| 2026-04-10 22:46 | 41.80297 | -90.82755 | 30071 ft | 400 kts | 95° |
| 2026-04-10 22:46 | 41.79962 | -90.79060 | 30713 ft | 401 kts | 95° |
| 2026-04-10 22:46 | 41.79620 | -90.75347 | 31345 ft | 401 kts | 95° |
| 2026-04-10 22:47 | 41.79279 | -90.71616 | 31934 ft | 403 kts | 96° |
| 2026-04-10 22:47 | 41.78940 | -90.67937 | 32596 ft | 402 kts | 96° |
| 2026-04-10 22:47 | 41.78596 | -90.64216 | 33282 ft | 402 kts | 96° |
| 2026-04-10 22:47 | 41.78250 | -90.60499 | 33988 ft | 402 kts | 96° |
| 2026-04-10 22:48 | 41.77906 | -90.56790 | 34654 ft | 401 kts | 96° |
| 2026-04-10 22:48 | 41.77559 | -90.53090 | 35311 ft | 399 kts | 96° |
| 2026-04-10 22:48 | 41.77215 | -90.49414 | 35963 ft | 396 kts | 96° |
| 2026-04-10 22:48 | 41.76870 | -90.45768 | 36650 ft | 393 kts | 96° |
| 2026-04-10 22:49 | 41.76530 | -90.42147 | 37315 ft | 391 kts | 97° |
| 2026-04-10 22:49 | 41.76186 | -90.38537 | 37988 ft | 389 kts | 96° |
| 2026-04-10 22:49 | 41.75847 | -90.34944 | 38625 ft | 389 kts | 97° |
| 2026-04-10 22:49 | 41.75503 | -90.31358 | 39220 ft | 388 kts | 97° |
| 2026-04-10 22:50 | 41.75155 | -90.27725 | 39371 ft | 401 kts | 97° |
| 2026-04-10 22:50 | 41.74793 | -90.23939 | 39377 ft | 418 kts | 97° |
| 2026-04-10 22:50 | 41.74416 | -90.20059 | 39391 ft | 432 kts | 97° |
| 2026-04-10 22:50 | 41.74025 | -90.16000 | 39393 ft | 446 kts | 97° |
| 2026-04-10 22:51 | 41.73618 | -90.11821 | 39393 ft | 459 kts | 97° |
| 2026-04-10 22:51 | 41.72772 | -90.03162 | 39392 ft | 478 kts | 97° |